sensor_id;sensor_type;location;lat;lon;timestamp;P1;durP1;ratioP1;P2;durP2;ratioP2
52057;SDS011;38063;53.210;6.504;2023-07-22T00:02:16;9.68;;;4.85;;
52057;SDS011;38063;53.210;6.504;2023-07-22T00:04:42;13.55;;;4.32;;
52057;SDS011;38063;53.210;6.504;2023-07-22T00:07:08;13.65;;;5.28;;
52057;SDS011;38063;53.210;6.504;2023-07-22T00:09:33;11.63;;;5.13;;
52057;SDS011;38063;53.210;6.504;2023-07-22T00:11:59;9.32;;;4.85;;
52057;SDS011;38063;53.210;6.504;2023-07-22T00:14:25;8.82;;;4.85;;
52057;SDS011;38063;53.210;6.504;2023-07-22T00:16:50;10.75;;;4.78;;
52057;SDS011;38063;53.210;6.504;2023-07-22T00:19:16;14.30;;;5.38;;
52057;SDS011;38063;53.210;6.504;2023-07-22T00:21:42;10.20;;;4.68;;
52057;SDS011;38063;53.210;6.504;2023-07-22T00:24:07;7.65;;;4.45;;
52057;SDS011;38063;53.210;6.504;2023-07-22T00:26:34;9.95;;;4.35;;
52057;SDS011;38063;53.210;6.504;2023-07-22T00:29:00;6.85;;;4.30;;
52057;SDS011;38063;53.210;6.504;2023-07-22T00:31:26;8.57;;;4.07;;
52057;SDS011;38063;53.210;6.504;2023-07-22T00:33:52;9.05;;;4.13;;
52057;SDS011;38063;53.210;6.504;2023-07-22T00:36:18;9.57;;;4.18;;
52057;SDS011;38063;53.210;6.504;2023-07-22T00:38:43;12.38;;;4.93;;
52057;SDS011;38063;53.210;6.504;2023-07-22T00:41:09;11.18;;;4.85;;
52057;SDS011;38063;53.210;6.504;2023-07-22T00:43:36;13.48;;;4.75;;
52057;SDS011;38063;53.210;6.504;2023-07-22T00:46:03;10.93;;;4.95;;
52057;SDS011;38063;53.210;6.504;2023-07-22T00:48:29;9.23;;;5.03;;
52057;SDS011;38063;53.210;6.504;2023-07-22T00:50:56;11.65;;;5.05;;
52057;SDS011;38063;53.210;6.504;2023-07-22T00:53:22;9.80;;;5.00;;
52057;SDS011;38063;53.210;6.504;2023-07-22T00:55:48;9.55;;;5.03;;
52057;SDS011;38063;53.210;6.504;2023-07-22T00:58:13;8.93;;;4.60;;
52057;SDS011;38063;53.210;6.504;2023-07-22T01:00:40;12.52;;;5.72;;
52057;SDS011;38063;53.210;6.504;2023-07-22T01:03:05;10.75;;;5.10;;
52057;SDS011;38063;53.210;6.504;2023-07-22T01:05:33;8.43;;;4.95;;
52057;SDS011;38063;53.210;6.504;2023-07-22T01:08:00;14.02;;;5.63;;
52057;SDS011;38063;53.210;6.504;2023-07-22T01:10:26;12.93;;;5.25;;
52057;SDS011;38063;53.210;6.504;2023-07-22T01:12:51;13.05;;;4.97;;
52057;SDS011;38063;53.210;6.504;2023-07-22T01:15:17;10.45;;;5.28;;
52057;SDS011;38063;53.210;6.504;2023-07-22T01:17:43;12.60;;;5.47;;
52057;SDS011;38063;53.210;6.504;2023-07-22T01:20:10;13.43;;;5.63;;
52057;SDS011;38063;53.210;6.504;2023-07-22T01:22:39;10.38;;;5.22;;
52057;SDS011;38063;53.210;6.504;2023-07-22T01:25:07;12.15;;;5.22;;
52057;SDS011;38063;53.210;6.504;2023-07-22T01:27:33;12.20;;;5.70;;
52057;SDS011;38063;53.210;6.504;2023-07-22T01:29:59;10.80;;;5.38;;
52057;SDS011;38063;53.210;6.504;2023-07-22T01:32:26;10.13;;;5.20;;
52057;SDS011;38063;53.210;6.504;2023-07-22T01:34:52;8.68;;;4.82;;
52057;SDS011;38063;53.210;6.504;2023-07-22T01:37:18;11.18;;;4.50;;
52057;SDS011;38063;53.210;6.504;2023-07-22T01:39:44;13.18;;;4.88;;
52057;SDS011;38063;53.210;6.504;2023-07-22T01:42:09;8.25;;;4.35;;
52057;SDS011;38063;53.210;6.504;2023-07-22T01:44:35;12.10;;;5.10;;
52057;SDS011;38063;53.210;6.504;2023-07-22T01:47:02;10.73;;;5.38;;
52057;SDS011;38063;53.210;6.504;2023-07-22T01:49:28;7.30;;;4.10;;
52057;SDS011;38063;53.210;6.504;2023-07-22T01:51:54;12.88;;;4.45;;
52057;SDS011;38063;53.210;6.504;2023-07-22T01:54:21;9.68;;;4.40;;
52057;SDS011;38063;53.210;6.504;2023-07-22T01:56:46;9.05;;;4.90;;
52057;SDS011;38063;53.210;6.504;2023-07-22T01:59:12;10.88;;;4.55;;
52057;SDS011;38063;53.210;6.504;2023-07-22T02:01:38;8.95;;;4.25;;
52057;SDS011;38063;53.210;6.504;2023-07-22T02:04:03;9.98;;;4.13;;
52057;SDS011;38063;53.210;6.504;2023-07-22T02:06:29;8.35;;;3.80;;
52057;SDS011;38063;53.210;6.504;2023-07-22T02:08:55;6.90;;;3.80;;
52057;SDS011;38063;53.210;6.504;2023-07-22T02:11:21;6.90;;;3.65;;
52057;SDS011;38063;53.210;6.504;2023-07-22T02:13:48;8.95;;;3.80;;
52057;SDS011;38063;53.210;6.504;2023-07-22T02:16:16;8.40;;;4.05;;
52057;SDS011;38063;53.210;6.504;2023-07-22T02:18:43;9.43;;;4.10;;
52057;SDS011;38063;53.210;6.504;2023-07-22T02:21:09;11.18;;;4.05;;
52057;SDS011;38063;53.210;6.504;2023-07-22T02:23:35;9.85;;;4.25;;
52057;SDS011;38063;53.210;6.504;2023-07-22T02:26:00;11.63;;;4.28;;
52057;SDS011;38063;53.210;6.504;2023-07-22T02:28:26;9.80;;;3.60;;
52057;SDS011;38063;53.210;6.504;2023-07-22T02:30:52;8.55;;;3.70;;
52057;SDS011;38063;53.210;6.504;2023-07-22T02:33:19;7.07;;;4.10;;
52057;SDS011;38063;53.210;6.504;2023-07-22T02:35:46;8.60;;;3.63;;
52057;SDS011;38063;53.210;6.504;2023-07-22T02:38:13;9.30;;;3.88;;
52057;SDS011;38063;53.210;6.504;2023-07-22T02:40:42;9.32;;;3.67;;
52057;SDS011;38063;53.210;6.504;2023-07-22T02:43:07;9.10;;;3.72;;
52057;SDS011;38063;53.210;6.504;2023-07-22T02:45:34;7.68;;;3.70;;
52057;SDS011;38063;53.210;6.504;2023-07-22T02:48:02;7.60;;;3.60;;
52057;SDS011;38063;53.210;6.504;2023-07-22T02:50:28;8.05;;;4.10;;
52057;SDS011;38063;53.210;6.504;2023-07-22T02:52:54;10.50;;;3.90;;
52057;SDS011;38063;53.210;6.504;2023-07-22T02:55:19;7.00;;;3.28;;
52057;SDS011;38063;53.210;6.504;2023-07-22T02:57:45;10.13;;;3.78;;
52057;SDS011;38063;53.210;6.504;2023-07-22T03:00:12;9.15;;;4.05;;
52057;SDS011;38063;53.210;6.504;2023-07-22T03:02:42;9.13;;;4.18;;
52057;SDS011;38063;53.210;6.504;2023-07-22T03:05:09;10.45;;;4.10;;
52057;SDS011;38063;53.210;6.504;2023-07-22T03:07:36;9.48;;;3.60;;
52057;SDS011;38063;53.210;6.504;2023-07-22T03:10:05;12.13;;;4.32;;
52057;SDS011;38063;53.210;6.504;2023-07-22T03:12:32;12.07;;;4.40;;
52057;SDS011;38063;53.210;6.504;2023-07-22T03:14:58;11.85;;;4.40;;
52057;SDS011;38063;53.210;6.504;2023-07-22T03:17:24;8.68;;;4.57;;
52057;SDS011;38063;53.210;6.504;2023-07-22T03:19:50;10.63;;;4.45;;
52057;SDS011;38063;53.210;6.504;2023-07-22T03:22:16;9.85;;;3.90;;
52057;SDS011;38063;53.210;6.504;2023-07-22T03:24:43;9.18;;;4.15;;
52057;SDS011;38063;53.210;6.504;2023-07-22T03:27:10;9.20;;;5.00;;
52057;SDS011;38063;53.210;6.504;2023-07-22T03:29:37;8.85;;;4.47;;
52057;SDS011;38063;53.210;6.504;2023-07-22T03:32:04;8.85;;;4.55;;
52057;SDS011;38063;53.210;6.504;2023-07-22T03:34:30;10.77;;;4.70;;
52057;SDS011;38063;53.210;6.504;2023-07-22T03:36:58;11.20;;;4.55;;
52057;SDS011;38063;53.210;6.504;2023-07-22T03:39:24;9.32;;;4.43;;
52057;SDS011;38063;53.210;6.504;2023-07-22T03:41:49;9.95;;;4.13;;
52057;SDS011;38063;53.210;6.504;2023-07-22T03:44:15;8.23;;;4.40;;
52057;SDS011;38063;53.210;6.504;2023-07-22T03:46:41;9.05;;;4.22;;
52057;SDS011;38063;53.210;6.504;2023-07-22T03:49:07;7.85;;;4.50;;
52057;SDS011;38063;53.210;6.504;2023-07-22T03:51:33;8.88;;;4.18;;
52057;SDS011;38063;53.210;6.504;2023-07-22T03:53:59;10.10;;;4.57;;
52057;SDS011;38063;53.210;6.504;2023-07-22T03:56:25;7.00;;;4.32;;
52057;SDS011;38063;53.210;6.504;2023-07-22T03:58:51;10.10;;;4.28;;
52057;SDS011;38063;53.210;6.504;2023-07-22T04:01:17;9.52;;;4.45;;
52057;SDS011;38063;53.210;6.504;2023-07-22T04:03:43;8.70;;;4.30;;
52057;SDS011;38063;53.210;6.504;2023-07-22T04:06:10;8.98;;;4.82;;
52057;SDS011;38063;53.210;6.504;2023-07-22T04:08:39;12.85;;;4.82;;
52057;SDS011;38063;53.210;6.504;2023-07-22T04:11:04;7.72;;;4.40;;
52057;SDS011;38063;53.210;6.504;2023-07-22T04:13:30;10.20;;;4.40;;
52057;SDS011;38063;53.210;6.504;2023-07-22T04:15:59;7.03;;;4.30;;
52057;SDS011;38063;53.210;6.504;2023-07-22T04:18:25;10.75;;;4.57;;
52057;SDS011;38063;53.210;6.504;2023-07-22T04:20:55;13.90;;;4.47;;
52057;SDS011;38063;53.210;6.504;2023-07-22T04:23:22;9.68;;;4.43;;
52057;SDS011;38063;53.210;6.504;2023-07-22T04:25:48;10.27;;;4.47;;
52057;SDS011;38063;53.210;6.504;2023-07-22T04:28:13;8.77;;;4.68;;
52057;SDS011;38063;53.210;6.504;2023-07-22T04:30:41;11.95;;;4.68;;
52057;SDS011;38063;53.210;6.504;2023-07-22T04:33:06;11.85;;;4.88;;
52057;SDS011;38063;53.210;6.504;2023-07-22T04:35:40;9.82;;;4.65;;
52057;SDS011;38063;53.210;6.504;2023-07-22T04:38:07;11.57;;;4.90;;
52057;SDS011;38063;53.210;6.504;2023-07-22T04:40:33;10.55;;;4.78;;
52057;SDS011;38063;53.210;6.504;2023-07-22T04:42:58;12.80;;;5.22;;
52057;SDS011;38063;53.210;6.504;2023-07-22T04:45:24;11.50;;;5.43;;
52057;SDS011;38063;53.210;6.504;2023-07-22T04:47:50;10.88;;;4.93;;
52057;SDS011;38063;53.210;6.504;2023-07-22T04:50:16;11.63;;;5.63;;
52057;SDS011;38063;53.210;6.504;2023-07-22T04:52:43;16.15;;;5.68;;
52057;SDS011;38063;53.210;6.504;2023-07-22T04:55:11;15.07;;;6.07;;
52057;SDS011;38063;53.210;6.504;2023-07-22T04:57:40;11.60;;;5.18;;
52057;SDS011;38063;53.210;6.504;2023-07-22T05:00:16;10.68;;;5.63;;
52057;SDS011;38063;53.210;6.504;2023-07-22T05:02:44;9.98;;;5.72;;
52057;SDS011;38063;53.210;6.504;2023-07-22T05:05:11;10.30;;;5.00;;
52057;SDS011;38063;53.210;6.504;2023-07-22T05:07:40;10.85;;;5.45;;
52057;SDS011;38063;53.210;6.504;2023-07-22T05:10:06;11.80;;;5.80;;
52057;SDS011;38063;53.210;6.504;2023-07-22T05:12:37;12.40;;;5.57;;
52057;SDS011;38063;53.210;6.504;2023-07-22T05:15:03;16.00;;;5.97;;
52057;SDS011;38063;53.210;6.504;2023-07-22T05:17:30;9.80;;;5.93;;
52057;SDS011;38063;53.210;6.504;2023-07-22T05:19:56;10.32;;;5.90;;
52057;SDS011;38063;53.210;6.504;2023-07-22T05:22:22;13.07;;;6.55;;
52057;SDS011;38063;53.210;6.504;2023-07-22T05:24:48;12.55;;;6.13;;
52057;SDS011;38063;53.210;6.504;2023-07-22T05:27:14;12.32;;;6.25;;
52057;SDS011;38063;53.210;6.504;2023-07-22T05:29:41;13.35;;;6.40;;
52057;SDS011;38063;53.210;6.504;2023-07-22T05:32:06;11.95;;;5.85;;
52057;SDS011;38063;53.210;6.504;2023-07-22T05:34:32;13.77;;;6.70;;
52057;SDS011;38063;53.210;6.504;2023-07-22T05:36:58;12.73;;;6.53;;
52057;SDS011;38063;53.210;6.504;2023-07-22T05:39:24;12.27;;;6.43;;
52057;SDS011;38063;53.210;6.504;2023-07-22T05:41:50;14.57;;;5.90;;
52057;SDS011;38063;53.210;6.504;2023-07-22T05:44:16;12.02;;;6.97;;
52057;SDS011;38063;53.210;6.504;2023-07-22T05:46:41;12.07;;;6.43;;
52057;SDS011;38063;53.210;6.504;2023-07-22T05:49:07;15.40;;;6.55;;
52057;SDS011;38063;53.210;6.504;2023-07-22T05:51:33;11.93;;;6.20;;
52057;SDS011;38063;53.210;6.504;2023-07-22T05:53:59;13.70;;;6.78;;
52057;SDS011;38063;53.210;6.504;2023-07-22T05:56:25;17.02;;;7.57;;
52057;SDS011;38063;53.210;6.504;2023-07-22T05:58:51;14.32;;;6.35;;
52057;SDS011;38063;53.210;6.504;2023-07-22T06:01:16;13.27;;;6.93;;
52057;SDS011;38063;53.210;6.504;2023-07-22T06:03:42;11.32;;;6.35;;
52057;SDS011;38063;53.210;6.504;2023-07-22T06:06:09;11.07;;;6.75;;
52057;SDS011;38063;53.210;6.504;2023-07-22T06:08:35;12.15;;;6.28;;
52057;SDS011;38063;53.210;6.504;2023-07-22T06:11:01;13.38;;;6.85;;
52057;SDS011;38063;53.210;6.504;2023-07-22T06:13:27;16.90;;;6.43;;
52057;SDS011;38063;53.210;6.504;2023-07-22T06:15:52;16.35;;;6.88;;
52057;SDS011;38063;53.210;6.504;2023-07-22T06:18:18;12.35;;;6.68;;
52057;SDS011;38063;53.210;6.504;2023-07-22T06:20:44;15.68;;;6.90;;
52057;SDS011;38063;53.210;6.504;2023-07-22T06:23:10;14.40;;;6.70;;
52057;SDS011;38063;53.210;6.504;2023-07-22T06:25:36;14.82;;;7.05;;
52057;SDS011;38063;53.210;6.504;2023-07-22T06:28:02;14.48;;;6.35;;
52057;SDS011;38063;53.210;6.504;2023-07-22T06:30:27;14.45;;;7.15;;
52057;SDS011;38063;53.210;6.504;2023-07-22T06:32:54;14.73;;;7.85;;
52057;SDS011;38063;53.210;6.504;2023-07-22T06:35:20;12.73;;;6.90;;
52057;SDS011;38063;53.210;6.504;2023-07-22T06:37:45;11.60;;;6.68;;
52057;SDS011;38063;53.210;6.504;2023-07-22T06:40:11;16.42;;;7.43;;
52057;SDS011;38063;53.210;6.504;2023-07-22T06:42:37;19.42;;;9.13;;
52057;SDS011;38063;53.210;6.504;2023-07-22T06:45:03;12.98;;;7.82;;
52057;SDS011;38063;53.210;6.504;2023-07-22T06:47:30;20.98;;;8.00;;
52057;SDS011;38063;53.210;6.504;2023-07-22T06:49:56;13.88;;;7.00;;
52057;SDS011;38063;53.210;6.504;2023-07-22T06:52:22;16.20;;;7.40;;
52057;SDS011;38063;53.210;6.504;2023-07-22T06:54:48;17.88;;;8.02;;
52057;SDS011;38063;53.210;6.504;2023-07-22T06:57:13;15.07;;;8.15;;
52057;SDS011;38063;53.210;6.504;2023-07-22T06:59:39;18.02;;;7.88;;
52057;SDS011;38063;53.210;6.504;2023-07-22T07:02:05;15.52;;;7.97;;
52057;SDS011;38063;53.210;6.504;2023-07-22T07:04:30;16.52;;;6.90;;
52057;SDS011;38063;53.210;6.504;2023-07-22T07:06:56;14.48;;;7.82;;
52057;SDS011;38063;53.210;6.504;2023-07-22T07:09:22;15.43;;;7.72;;
52057;SDS011;38063;53.210;6.504;2023-07-22T07:11:48;13.95;;;6.90;;
52057;SDS011;38063;53.210;6.504;2023-07-22T07:14:13;14.00;;;6.75;;
52057;SDS011;38063;53.210;6.504;2023-07-22T07:16:39;12.65;;;7.05;;
52057;SDS011;38063;53.210;6.504;2023-07-22T07:19:05;11.82;;;7.03;;
52057;SDS011;38063;53.210;6.504;2023-07-22T07:21:31;12.38;;;6.32;;
52057;SDS011;38063;53.210;6.504;2023-07-22T07:23:58;13.38;;;7.00;;
52057;SDS011;38063;53.210;6.504;2023-07-22T07:26:24;13.82;;;7.22;;
52057;SDS011;38063;53.210;6.504;2023-07-22T07:28:49;14.93;;;7.43;;
52057;SDS011;38063;53.210;6.504;2023-07-22T07:31:17;13.88;;;6.40;;
52057;SDS011;38063;53.210;6.504;2023-07-22T07:33:43;13.45;;;7.63;;
52057;SDS011;38063;53.210;6.504;2023-07-22T07:36:09;12.02;;;7.18;;
52057;SDS011;38063;53.210;6.504;2023-07-22T07:38:35;12.60;;;6.93;;
52057;SDS011;38063;53.210;6.504;2023-07-22T07:41:04;11.68;;;6.95;;
52057;SDS011;38063;53.210;6.504;2023-07-22T07:43:36;13.43;;;7.18;;
52057;SDS011;38063;53.210;6.504;2023-07-22T07:48:58;11.55;;;7.28;;
52057;SDS011;38063;53.210;6.504;2023-07-22T07:51:29;12.50;;;7.20;;
52057;SDS011;38063;53.210;6.504;2023-07-22T07:53:56;17.50;;;6.90;;
52057;SDS011;38063;53.210;6.504;2023-07-22T07:56:23;15.95;;;7.38;;
52057;SDS011;38063;53.210;6.504;2023-07-22T07:58:50;12.75;;;7.35;;
52057;SDS011;38063;53.210;6.504;2023-07-22T08:01:18;11.40;;;7.07;;
52057;SDS011;38063;53.210;6.504;2023-07-22T08:03:44;12.68;;;6.78;;
52057;SDS011;38063;53.210;6.504;2023-07-22T08:06:10;16.08;;;6.93;;
52057;SDS011;38063;53.210;6.504;2023-07-22T08:08:37;13.60;;;6.38;;
52057;SDS011;38063;53.210;6.504;2023-07-22T08:11:10;10.45;;;6.40;;
52057;SDS011;38063;53.210;6.504;2023-07-22T08:13:40;11.52;;;6.63;;
52057;SDS011;38063;53.210;6.504;2023-07-22T08:16:08;12.52;;;6.65;;
52057;SDS011;38063;53.210;6.504;2023-07-22T08:18:35;17.25;;;7.35;;
52057;SDS011;38063;53.210;6.504;2023-07-22T08:21:02;12.77;;;6.65;;
52057;SDS011;38063;53.210;6.504;2023-07-22T08:23:28;9.65;;;6.20;;
52057;SDS011;38063;53.210;6.504;2023-07-22T08:25:54;10.05;;;5.68;;
52057;SDS011;38063;53.210;6.504;2023-07-22T08:28:20;10.60;;;5.68;;
52057;SDS011;38063;53.210;6.504;2023-07-22T08:30:47;8.90;;;5.60;;
52057;SDS011;38063;53.210;6.504;2023-07-22T08:33:13;9.43;;;5.93;;
52057;SDS011;38063;53.210;6.504;2023-07-22T08:35:39;11.52;;;5.47;;
52057;SDS011;38063;53.210;6.504;2023-07-22T08:38:05;9.00;;;5.47;;
52057;SDS011;38063;53.210;6.504;2023-07-22T08:40:34;12.18;;;5.95;;
52057;SDS011;38063;53.210;6.504;2023-07-22T08:43:05;13.18;;;6.57;;
52057;SDS011;38063;53.210;6.504;2023-07-22T08:45:32;15.63;;;6.97;;
52057;SDS011;38063;53.210;6.504;2023-07-22T08:48:02;11.65;;;6.13;;
52057;SDS011;38063;53.210;6.504;2023-07-22T08:53:15;10.75;;;5.72;;
52057;SDS011;38063;53.210;6.504;2023-07-22T08:55:42;8.85;;;5.28;;
52057;SDS011;38063;53.210;6.504;2023-07-22T08:58:09;9.98;;;5.43;;
52057;SDS011;38063;53.210;6.504;2023-07-22T09:00:35;10.55;;;5.20;;
52057;SDS011;38063;53.210;6.504;2023-07-22T09:03:02;9.27;;;5.60;;
52057;SDS011;38063;53.210;6.504;2023-07-22T09:05:30;6.75;;;4.45;;
52057;SDS011;38063;53.210;6.504;2023-07-22T09:07:57;9.38;;;5.75;;
52057;SDS011;38063;53.210;6.504;2023-07-22T09:10:24;11.45;;;6.40;;
52057;SDS011;38063;53.210;6.504;2023-07-22T09:12:52;7.80;;;4.80;;
52057;SDS011;38063;53.210;6.504;2023-07-22T09:15:18;9.95;;;4.38;;
52057;SDS011;38063;53.210;6.504;2023-07-22T09:17:44;8.05;;;4.75;;
52057;SDS011;38063;53.210;6.504;2023-07-22T09:20:11;7.82;;;4.97;;
52057;SDS011;38063;53.210;6.504;2023-07-22T09:22:47;9.43;;;4.80;;
52057;SDS011;38063;53.210;6.504;2023-07-22T09:25:15;7.82;;;5.15;;
52057;SDS011;38063;53.210;6.504;2023-07-22T09:27:42;8.35;;;5.05;;
52057;SDS011;38063;53.210;6.504;2023-07-22T09:33:20;9.05;;;6.10;;
52057;SDS011;38063;53.210;6.504;2023-07-22T09:35:47;16.23;;;7.80;;
52057;SDS011;38063;53.210;6.504;2023-07-22T09:38:14;11.13;;;7.07;;
52057;SDS011;38063;53.210;6.504;2023-07-22T09:40:46;11.60;;;7.55;;
52057;SDS011;38063;53.210;6.504;2023-07-22T09:43:12;14.52;;;7.80;;
52057;SDS011;38063;53.210;6.504;2023-07-22T09:45:38;13.98;;;8.13;;
52057;SDS011;38063;53.210;6.504;2023-07-22T09:48:04;11.90;;;7.72;;
52057;SDS011;38063;53.210;6.504;2023-07-22T09:50:30;15.23;;;8.07;;
52057;SDS011;38063;53.210;6.504;2023-07-22T09:52:57;16.30;;;8.25;;
52057;SDS011;38063;53.210;6.504;2023-07-22T09:55:28;13.57;;;8.18;;
52057;SDS011;38063;53.210;6.504;2023-07-22T09:57:58;13.32;;;7.88;;
52057;SDS011;38063;53.210;6.504;2023-07-22T10:00:32;10.00;;;7.10;;
52057;SDS011;38063;53.210;6.504;2023-07-22T10:03:00;13.73;;;7.80;;
52057;SDS011;38063;53.210;6.504;2023-07-22T10:05:28;13.07;;;6.13;;
52057;SDS011;38063;53.210;6.504;2023-07-22T10:07:57;11.60;;;6.82;;
52057;SDS011;38063;53.210;6.504;2023-07-22T10:10:30;11.98;;;6.90;;
52057;SDS011;38063;53.210;6.504;2023-07-22T10:12:56;10.80;;;6.47;;
52057;SDS011;38063;53.210;6.504;2023-07-22T10:15:23;10.38;;;6.45;;
52057;SDS011;38063;53.210;6.504;2023-07-22T10:17:50;10.90;;;6.97;;
52057;SDS011;38063;53.210;6.504;2023-07-22T10:20:16;10.82;;;6.45;;
52057;SDS011;38063;53.210;6.504;2023-07-22T10:22:45;11.48;;;6.82;;
52057;SDS011;38063;53.210;6.504;2023-07-22T10:25:14;9.50;;;7.07;;
52057;SDS011;38063;53.210;6.504;2023-07-22T10:27:41;12.52;;;6.95;;
52057;SDS011;38063;53.210;6.504;2023-07-22T10:30:11;9.93;;;7.10;;
52057;SDS011;38063;53.210;6.504;2023-07-22T10:32:38;10.80;;;7.15;;
52057;SDS011;38063;53.210;6.504;2023-07-22T10:35:09;11.00;;;6.85;;
52057;SDS011;38063;53.210;6.504;2023-07-22T10:38:14;10.35;;;6.65;;
52057;SDS011;38063;53.210;6.504;2023-07-22T10:40:59;9.38;;;6.90;;
52057;SDS011;38063;53.210;6.504;2023-07-22T10:43:25;9.65;;;6.18;;
52057;SDS011;38063;53.210;6.504;2023-07-22T10:45:55;8.45;;;6.20;;
52057;SDS011;38063;53.210;6.504;2023-07-22T10:48:25;8.75;;;6.57;;
52057;SDS011;38063;53.210;6.504;2023-07-22T10:50:57;8.82;;;5.53;;
52057;SDS011;38063;53.210;6.504;2023-07-22T10:53:29;12.48;;;5.55;;
52057;SDS011;38063;53.210;6.504;2023-07-22T10:56:02;9.73;;;5.47;;
52057;SDS011;38063;53.210;6.504;2023-07-22T10:58:54;7.57;;;5.05;;
52057;SDS011;38063;53.210;6.504;2023-07-22T11:01:24;7.13;;;4.57;;
52057;SDS011;38063;53.210;6.504;2023-07-22T11:06:31;7.95;;;5.55;;
52057;SDS011;38063;53.210;6.504;2023-07-22T11:08:58;6.57;;;4.72;;
52057;SDS011;38063;53.210;6.504;2023-07-22T11:11:36;8.68;;;4.95;;
52057;SDS011;38063;53.210;6.504;2023-07-22T11:14:20;8.80;;;5.00;;
52057;SDS011;38063;53.210;6.504;2023-07-22T11:16:46;7.35;;;4.80;;
52057;SDS011;38063;53.210;6.504;2023-07-22T11:19:13;6.78;;;4.70;;
52057;SDS011;38063;53.210;6.504;2023-07-22T11:21:40;7.95;;;5.05;;
52057;SDS011;38063;53.210;6.504;2023-07-22T11:24:07;6.15;;;4.47;;
52057;SDS011;38063;53.210;6.504;2023-07-22T11:26:33;6.50;;;4.63;;
52057;SDS011;38063;53.210;6.504;2023-07-22T11:28:59;8.93;;;4.95;;
52057;SDS011;38063;53.210;6.504;2023-07-22T11:31:33;6.68;;;4.85;;
52057;SDS011;38063;53.210;6.504;2023-07-22T11:34:06;7.72;;;4.75;;
52057;SDS011;38063;53.210;6.504;2023-07-22T11:36:31;8.43;;;5.10;;
52057;SDS011;38063;53.210;6.504;2023-07-22T11:39:01;6.70;;;5.10;;
52057;SDS011;38063;53.210;6.504;2023-07-22T11:41:28;7.55;;;5.07;;
52057;SDS011;38063;53.210;6.504;2023-07-22T11:43:56;7.20;;;5.10;;
52057;SDS011;38063;53.210;6.504;2023-07-22T11:46:22;7.45;;;5.03;;
52057;SDS011;38063;53.210;6.504;2023-07-22T11:48:49;7.78;;;5.97;;
52057;SDS011;38063;53.210;6.504;2023-07-22T11:51:20;9.35;;;6.00;;
52057;SDS011;38063;53.210;6.504;2023-07-22T11:53:47;9.23;;;5.80;;
52057;SDS011;38063;53.210;6.504;2023-07-22T11:56:25;9.02;;;5.78;;
52057;SDS011;38063;53.210;6.504;2023-07-22T11:58:52;7.88;;;6.00;;
52057;SDS011;38063;53.210;6.504;2023-07-22T12:01:20;10.88;;;7.00;;
52057;SDS011;38063;53.210;6.504;2023-07-22T12:03:46;9.05;;;7.03;;
52057;SDS011;38063;53.210;6.504;2023-07-22T12:06:12;10.00;;;7.10;;
52057;SDS011;38063;53.210;6.504;2023-07-22T12:08:45;10.48;;;7.70;;
52057;SDS011;38063;53.210;6.504;2023-07-22T12:11:19;10.43;;;7.88;;
52057;SDS011;38063;53.210;6.504;2023-07-22T12:14:08;10.10;;;7.35;;
52057;SDS011;38063;53.210;6.504;2023-07-22T12:16:39;10.57;;;7.53;;
52057;SDS011;38063;53.210;6.504;2023-07-22T12:19:07;9.80;;;7.72;;
52057;SDS011;38063;53.210;6.504;2023-07-22T12:21:33;13.38;;;7.95;;
52057;SDS011;38063;53.210;6.504;2023-07-22T12:23:59;12.38;;;8.20;;
52057;SDS011;38063;53.210;6.504;2023-07-22T12:26:26;12.13;;;7.97;;
52057;SDS011;38063;53.210;6.504;2023-07-22T12:28:52;11.32;;;8.10;;
52057;SDS011;38063;53.210;6.504;2023-07-22T12:31:18;13.43;;;8.00;;
52057;SDS011;38063;53.210;6.504;2023-07-22T12:33:43;12.93;;;8.52;;
52057;SDS011;38063;53.210;6.504;2023-07-22T12:36:10;11.50;;;8.30;;
52057;SDS011;38063;53.210;6.504;2023-07-22T12:38:36;12.02;;;7.97;;
52057;SDS011;38063;53.210;6.504;2023-07-22T12:41:01;13.27;;;8.30;;
52057;SDS011;38063;53.210;6.504;2023-07-22T12:43:27;12.10;;;9.23;;
52057;SDS011;38063;53.210;6.504;2023-07-22T12:45:53;12.27;;;8.35;;
52057;SDS011;38063;53.210;6.504;2023-07-22T12:48:18;12.43;;;8.55;;
52057;SDS011;38063;53.210;6.504;2023-07-22T12:50:44;13.60;;;8.50;;
52057;SDS011;38063;53.210;6.504;2023-07-22T12:53:12;13.68;;;8.38;;
52057;SDS011;38063;53.210;6.504;2023-07-22T12:55:38;11.35;;;8.23;;
52057;SDS011;38063;53.210;6.504;2023-07-22T12:58:04;12.43;;;8.48;;
52057;SDS011;38063;53.210;6.504;2023-07-22T13:00:30;14.18;;;8.38;;
52057;SDS011;38063;53.210;6.504;2023-07-22T13:02:56;11.73;;;8.30;;
52057;SDS011;38063;53.210;6.504;2023-07-22T13:05:22;14.45;;;9.15;;
52057;SDS011;38063;53.210;6.504;2023-07-22T13:07:48;10.48;;;8.13;;
52057;SDS011;38063;53.210;6.504;2023-07-22T13:10:14;10.70;;;8.65;;
52057;SDS011;38063;53.210;6.504;2023-07-22T13:12:43;11.80;;;9.05;;
52057;SDS011;38063;53.210;6.504;2023-07-22T13:15:08;13.40;;;8.82;;
52057;SDS011;38063;53.210;6.504;2023-07-22T13:17:35;13.27;;;9.07;;
52057;SDS011;38063;53.210;6.504;2023-07-22T13:20:01;10.35;;;7.50;;
52057;SDS011;38063;53.210;6.504;2023-07-22T13:22:35;11.38;;;8.48;;
52057;SDS011;38063;53.210;6.504;2023-07-22T13:25:01;11.27;;;9.10;;
52057;SDS011;38063;53.210;6.504;2023-07-22T13:27:28;14.73;;;8.75;;
52057;SDS011;38063;53.210;6.504;2023-07-22T13:29:54;11.93;;;9.25;;
52057;SDS011;38063;53.210;6.504;2023-07-22T13:32:19;10.93;;;9.15;;
52057;SDS011;38063;53.210;6.504;2023-07-22T13:34:45;12.52;;;7.50;;
52057;SDS011;38063;53.210;6.504;2023-07-22T13:37:11;11.93;;;8.65;;
52057;SDS011;38063;53.210;6.504;2023-07-22T13:39:36;11.73;;;8.55;;
52057;SDS011;38063;53.210;6.504;2023-07-22T13:42:02;9.35;;;7.90;;
52057;SDS011;38063;53.210;6.504;2023-07-22T13:44:28;13.88;;;9.32;;
52057;SDS011;38063;53.210;6.504;2023-07-22T13:46:53;15.45;;;9.25;;
52057;SDS011;38063;53.210;6.504;2023-07-22T13:49:19;14.10;;;9.27;;
52057;SDS011;38063;53.210;6.504;2023-07-22T13:51:45;11.32;;;9.05;;
52057;SDS011;38063;53.210;6.504;2023-07-22T13:54:11;11.57;;;8.55;;
52057;SDS011;38063;53.210;6.504;2023-07-22T13:56:37;10.65;;;8.20;;
52057;SDS011;38063;53.210;6.504;2023-07-22T13:59:03;10.20;;;8.45;;
52057;SDS011;38063;53.210;6.504;2023-07-22T14:01:29;12.30;;;8.80;;
52057;SDS011;38063;53.210;6.504;2023-07-22T14:03:56;12.25;;;9.10;;
52057;SDS011;38063;53.210;6.504;2023-07-22T14:06:22;9.57;;;8.50;;
52057;SDS011;38063;53.210;6.504;2023-07-22T14:08:48;13.38;;;9.75;;
52057;SDS011;38063;53.210;6.504;2023-07-22T14:11:13;11.65;;;8.63;;
52057;SDS011;38063;53.210;6.504;2023-07-22T14:13:39;13.02;;;9.18;;
52057;SDS011;38063;53.210;6.504;2023-07-22T14:16:05;11.32;;;7.60;;
52057;SDS011;38063;53.210;6.504;2023-07-22T14:18:30;13.40;;;9.05;;
52057;SDS011;38063;53.210;6.504;2023-07-22T14:20:56;10.32;;;7.72;;
52057;SDS011;38063;53.210;6.504;2023-07-22T14:23:21;10.20;;;7.90;;
52057;SDS011;38063;53.210;6.504;2023-07-22T14:25:47;11.20;;;8.15;;
52057;SDS011;38063;53.210;6.504;2023-07-22T14:28:13;11.18;;;8.00;;
52057;SDS011;38063;53.210;6.504;2023-07-22T14:30:38;9.57;;;8.05;;
52057;SDS011;38063;53.210;6.504;2023-07-22T14:33:04;13.73;;;8.55;;
52057;SDS011;38063;53.210;6.504;2023-07-22T14:35:30;9.40;;;7.55;;
52057;SDS011;38063;53.210;6.504;2023-07-22T14:37:57;8.68;;;7.45;;
52057;SDS011;38063;53.210;6.504;2023-07-22T14:40:24;12.02;;;8.02;;
52057;SDS011;38063;53.210;6.504;2023-07-22T14:42:50;16.27;;;9.48;;
52057;SDS011;38063;53.210;6.504;2023-07-22T14:45:16;13.40;;;8.85;;
52057;SDS011;38063;53.210;6.504;2023-07-22T14:47:41;12.88;;;8.82;;
52057;SDS011;38063;53.210;6.504;2023-07-22T14:50:07;12.07;;;8.45;;